sensor_id;sensor_type;location;lat;lon;timestamp;P1;durP1;ratioP1;P2;durP2;ratioP2
20844;SDS011;10583;49.084;8.646;2023-11-19T00:00:12;4.37;;;4.37;;
20844;SDS011;10583;49.084;8.646;2023-11-19T00:02:41;5.00;;;5.00;;
20844;SDS011;10583;49.084;8.646;2023-11-19T00:05:08;5.27;;;5.27;;
20844;SDS011;10583;49.084;8.646;2023-11-19T00:07:36;4.50;;;4.50;;
20844;SDS011;10583;49.084;8.646;2023-11-19T00:10:06;4.83;;;4.83;;
20844;SDS011;10583;49.084;8.646;2023-11-19T00:12:36;4.53;;;4.53;;
20844;SDS011;10583;49.084;8.646;2023-11-19T00:15:03;4.13;;;4.13;;
20844;SDS011;10583;49.084;8.646;2023-11-19T00:17:30;4.43;;;4.43;;
20844;SDS011;10583;49.084;8.646;2023-11-19T00:19:58;4.53;;;4.53;;
20844;SDS011;10583;49.084;8.646;2023-11-19T00:22:25;3.93;;;3.93;;
20844;SDS011;10583;49.084;8.646;2023-11-19T00:24:53;3.43;;;3.43;;
20844;SDS011;10583;49.084;8.646;2023-11-19T00:27:19;1.43;;;1.43;;
20844;SDS011;10583;49.084;8.646;2023-11-19T00:29:46;0.93;;;0.93;;
20844;SDS011;10583;49.084;8.646;2023-11-19T00:32:14;0.90;;;0.90;;
20844;SDS011;10583;49.084;8.646;2023-11-19T00:34:43;0.70;;;0.70;;
20844;SDS011;10583;49.084;8.646;2023-11-19T00:37:10;0.60;;;0.60;;
20844;SDS011;10583;49.084;8.646;2023-11-19T00:39:37;0.57;;;0.57;;
20844;SDS011;10583;49.084;8.646;2023-11-19T00:42:04;0.57;;;0.57;;
20844;SDS011;10583;49.084;8.646;2023-11-19T00:44:31;0.50;;;0.50;;
20844;SDS011;10583;49.084;8.646;2023-11-19T00:46:58;0.50;;;0.50;;
20844;SDS011;10583;49.084;8.646;2023-11-19T00:49:25;0.40;;;0.40;;
20844;SDS011;10583;49.084;8.646;2023-11-19T00:51:52;0.53;;;0.53;;
20844;SDS011;10583;49.084;8.646;2023-11-19T00:54:21;0.40;;;0.40;;
20844;SDS011;10583;49.084;8.646;2023-11-19T00:56:50;0.60;;;0.60;;
20844;SDS011;10583;49.084;8.646;2023-11-19T00:59:17;0.57;;;0.57;;
20844;SDS011;10583;49.084;8.646;2023-11-19T01:01:45;0.60;;;0.60;;
20844;SDS011;10583;49.084;8.646;2023-11-19T01:04:16;0.37;;;0.37;;
20844;SDS011;10583;49.084;8.646;2023-11-19T01:06:46;0.57;;;0.57;;
20844;SDS011;10583;49.084;8.646;2023-11-19T01:09:15;0.47;;;0.47;;
20844;SDS011;10583;49.084;8.646;2023-11-19T01:11:46;0.40;;;0.40;;
20844;SDS011;10583;49.084;8.646;2023-11-19T01:14:15;0.50;;;0.50;;
20844;SDS011;10583;49.084;8.646;2023-11-19T01:16:42;0.40;;;0.40;;
20844;SDS011;10583;49.084;8.646;2023-11-19T01:19:09;0.40;;;0.40;;
20844;SDS011;10583;49.084;8.646;2023-11-19T01:21:36;0.60;;;0.60;;
20844;SDS011;10583;49.084;8.646;2023-11-19T01:24:03;0.60;;;0.60;;
20844;SDS011;10583;49.084;8.646;2023-11-19T01:26:34;0.40;;;0.40;;
20844;SDS011;10583;49.084;8.646;2023-11-19T01:29:02;0.40;;;0.40;;
20844;SDS011;10583;49.084;8.646;2023-11-19T01:31:29;0.47;;;0.47;;
20844;SDS011;10583;49.084;8.646;2023-11-19T01:33:56;0.33;;;0.33;;
20844;SDS011;10583;49.084;8.646;2023-11-19T01:36:23;0.40;;;0.40;;
20844;SDS011;10583;49.084;8.646;2023-11-19T01:38:50;0.50;;;0.50;;
20844;SDS011;10583;49.084;8.646;2023-11-19T01:41:17;0.30;;;0.30;;
20844;SDS011;10583;49.084;8.646;2023-11-19T01:43:44;0.40;;;0.40;;
20844;SDS011;10583;49.084;8.646;2023-11-19T01:46:13;0.40;;;0.40;;
20844;SDS011;10583;49.084;8.646;2023-11-19T01:48:40;0.40;;;0.40;;
20844;SDS011;10583;49.084;8.646;2023-11-19T01:51:11;0.20;;;0.20;;
20844;SDS011;10583;49.084;8.646;2023-11-19T01:53:41;0.30;;;0.30;;
20844;SDS011;10583;49.084;8.646;2023-11-19T01:56:11;0.30;;;0.30;;
20844;SDS011;10583;49.084;8.646;2023-11-19T01:58:40;0.40;;;0.40;;
20844;SDS011;10583;49.084;8.646;2023-11-19T02:01:09;0.50;;;0.50;;
20844;SDS011;10583;49.084;8.646;2023-11-19T02:03:39;0.40;;;0.40;;
20844;SDS011;10583;49.084;8.646;2023-11-19T02:06:06;0.30;;;0.30;;
20844;SDS011;10583;49.084;8.646;2023-11-19T02:08:35;0.50;;;0.50;;
20844;SDS011;10583;49.084;8.646;2023-11-19T02:11:02;0.50;;;0.50;;
20844;SDS011;10583;49.084;8.646;2023-11-19T02:13:30;0.50;;;0.50;;
20844;SDS011;10583;49.084;8.646;2023-11-19T02:15:57;0.40;;;0.40;;
20844;SDS011;10583;49.084;8.646;2023-11-19T02:18:25;0.47;;;0.47;;
20844;SDS011;10583;49.084;8.646;2023-11-19T02:20:55;0.60;;;0.60;;
20844;SDS011;10583;49.084;8.646;2023-11-19T02:23:22;0.40;;;0.40;;
20844;SDS011;10583;49.084;8.646;2023-11-19T02:28:41;0.60;;;0.60;;
20844;SDS011;10583;49.084;8.646;2023-11-19T02:31:09;0.40;;;0.40;;
20844;SDS011;10583;49.084;8.646;2023-11-19T02:33:36;0.60;;;0.60;;
20844;SDS011;10583;49.084;8.646;2023-11-19T02:36:03;0.50;;;0.50;;
20844;SDS011;10583;49.084;8.646;2023-11-19T02:38:32;0.80;;;0.80;;
20844;SDS011;10583;49.084;8.646;2023-11-19T02:40:59;0.80;;;0.80;;
20844;SDS011;10583;49.084;8.646;2023-11-19T02:43:27;0.77;;;0.77;;
20844;SDS011;10583;49.084;8.646;2023-11-19T02:45:57;0.73;;;0.73;;
20844;SDS011;10583;49.084;8.646;2023-11-19T02:48:24;0.80;;;0.80;;
20844;SDS011;10583;49.084;8.646;2023-11-19T02:50:51;0.70;;;0.70;;
20844;SDS011;10583;49.084;8.646;2023-11-19T02:53:18;0.67;;;0.67;;
20844;SDS011;10583;49.084;8.646;2023-11-19T02:55:47;0.60;;;0.60;;
20844;SDS011;10583;49.084;8.646;2023-11-19T02:58:15;0.67;;;0.67;;
20844;SDS011;10583;49.084;8.646;2023-11-19T03:00:48;0.67;;;0.67;;
20844;SDS011;10583;49.084;8.646;2023-11-19T03:03:23;0.70;;;0.70;;
20844;SDS011;10583;49.084;8.646;2023-11-19T03:05:56;0.63;;;0.63;;
20844;SDS011;10583;49.084;8.646;2023-11-19T03:08:23;0.70;;;0.70;;
20844;SDS011;10583;49.084;8.646;2023-11-19T03:10:50;0.80;;;0.80;;
20844;SDS011;10583;49.084;8.646;2023-11-19T03:13:16;0.60;;;0.60;;
20844;SDS011;10583;49.084;8.646;2023-11-19T03:15:43;0.90;;;0.90;;
20844;SDS011;10583;49.084;8.646;2023-11-19T03:18:11;0.60;;;0.60;;
20844;SDS011;10583;49.084;8.646;2023-11-19T03:20:39;0.80;;;0.80;;
20844;SDS011;10583;49.084;8.646;2023-11-19T03:23:06;0.70;;;0.70;;
20844;SDS011;10583;49.084;8.646;2023-11-19T03:25:33;0.80;;;0.80;;
20844;SDS011;10583;49.084;8.646;2023-11-19T03:28:02;0.80;;;0.80;;
20844;SDS011;10583;49.084;8.646;2023-11-19T03:30:30;0.70;;;0.70;;
20844;SDS011;10583;49.084;8.646;2023-11-19T03:32:57;0.93;;;0.93;;
20844;SDS011;10583;49.084;8.646;2023-11-19T03:35:24;0.80;;;0.80;;
20844;SDS011;10583;49.084;8.646;2023-11-19T03:37:54;0.70;;;0.70;;
20844;SDS011;10583;49.084;8.646;2023-11-19T03:40:21;0.83;;;0.83;;
20844;SDS011;10583;49.084;8.646;2023-11-19T03:42:50;0.80;;;0.80;;
20844;SDS011;10583;49.084;8.646;2023-11-19T03:45:17;0.90;;;0.90;;
20844;SDS011;10583;49.084;8.646;2023-11-19T03:47:44;0.90;;;0.90;;
20844;SDS011;10583;49.084;8.646;2023-11-19T03:50:10;0.77;;;0.77;;
20844;SDS011;10583;49.084;8.646;2023-11-19T03:52:40;0.80;;;0.80;;
20844;SDS011;10583;49.084;8.646;2023-11-19T03:55:09;0.73;;;0.73;;
20844;SDS011;10583;49.084;8.646;2023-11-19T03:57:38;0.80;;;0.80;;
20844;SDS011;10583;49.084;8.646;2023-11-19T04:00:06;0.80;;;0.80;;
20844;SDS011;10583;49.084;8.646;2023-11-19T04:02:35;0.70;;;0.70;;
20844;SDS011;10583;49.084;8.646;2023-11-19T04:05:02;0.80;;;0.80;;
20844;SDS011;10583;49.084;8.646;2023-11-19T04:07:30;0.80;;;0.80;;
20844;SDS011;10583;49.084;8.646;2023-11-19T04:09:57;0.70;;;0.70;;
20844;SDS011;10583;49.084;8.646;2023-11-19T04:12:26;0.90;;;0.90;;
20844;SDS011;10583;49.084;8.646;2023-11-19T04:14:53;0.80;;;0.80;;
20844;SDS011;10583;49.084;8.646;2023-11-19T04:17:21;0.77;;;0.77;;
20844;SDS011;10583;49.084;8.646;2023-11-19T04:19:49;0.90;;;0.90;;
20844;SDS011;10583;49.084;8.646;2023-11-19T04:22:16;0.90;;;0.90;;
20844;SDS011;10583;49.084;8.646;2023-11-19T04:24:43;0.90;;;0.90;;
20844;SDS011;10583;49.084;8.646;2023-11-19T04:27:10;0.60;;;0.60;;
20844;SDS011;10583;49.084;8.646;2023-11-19T04:29:39;0.80;;;0.80;;
20844;SDS011;10583;49.084;8.646;2023-11-19T04:32:06;0.63;;;0.63;;
20844;SDS011;10583;49.084;8.646;2023-11-19T04:34:34;0.70;;;0.70;;
20844;SDS011;10583;49.084;8.646;2023-11-19T04:37:02;0.60;;;0.60;;
20844;SDS011;10583;49.084;8.646;2023-11-19T04:39:29;0.60;;;0.60;;
20844;SDS011;10583;49.084;8.646;2023-11-19T04:41:56;0.80;;;0.80;;
20844;SDS011;10583;49.084;8.646;2023-11-19T04:44:24;0.60;;;0.60;;
20844;SDS011;10583;49.084;8.646;2023-11-19T04:46:53;0.67;;;0.67;;
20844;SDS011;10583;49.084;8.646;2023-11-19T04:49:19;0.53;;;0.53;;
20844;SDS011;10583;49.084;8.646;2023-11-19T04:51:46;0.80;;;0.80;;
20844;SDS011;10583;49.084;8.646;2023-11-19T04:54:13;0.60;;;0.60;;
20844;SDS011;10583;49.084;8.646;2023-11-19T04:56:40;0.60;;;0.60;;
20844;SDS011;10583;49.084;8.646;2023-11-19T04:59:12;0.60;;;0.60;;
20844;SDS011;10583;49.084;8.646;2023-11-19T05:01:39;0.57;;;0.57;;
20844;SDS011;10583;49.084;8.646;2023-11-19T05:04:08;0.70;;;0.70;;
20844;SDS011;10583;49.084;8.646;2023-11-19T05:06:35;0.50;;;0.50;;
20844;SDS011;10583;49.084;8.646;2023-11-19T05:09:02;0.77;;;0.77;;
20844;SDS011;10583;49.084;8.646;2023-11-19T05:11:32;0.63;;;0.63;;
20844;SDS011;10583;49.084;8.646;2023-11-19T05:13:59;0.63;;;0.63;;
20844;SDS011;10583;49.084;8.646;2023-11-19T05:16:26;0.63;;;0.63;;
20844;SDS011;10583;49.084;8.646;2023-11-19T05:18:53;0.80;;;0.80;;
20844;SDS011;10583;49.084;8.646;2023-11-19T05:21:21;0.40;;;0.40;;
20844;SDS011;10583;49.084;8.646;2023-11-19T05:23:49;0.50;;;0.50;;
20844;SDS011;10583;49.084;8.646;2023-11-19T05:26:19;0.43;;;0.43;;
20844;SDS011;10583;49.084;8.646;2023-11-19T05:28:46;0.50;;;0.50;;
20844;SDS011;10583;49.084;8.646;2023-11-19T05:31:13;0.37;;;0.37;;
20844;SDS011;10583;49.084;8.646;2023-11-19T05:33:40;0.60;;;0.60;;
20844;SDS011;10583;49.084;8.646;2023-11-19T05:36:07;0.43;;;0.43;;
20844;SDS011;10583;49.084;8.646;2023-11-19T05:38:36;0.60;;;0.60;;
20844;SDS011;10583;49.084;8.646;2023-11-19T05:41:03;0.40;;;0.40;;
20844;SDS011;10583;49.084;8.646;2023-11-19T05:43:31;0.50;;;0.50;;
20844;SDS011;10583;49.084;8.646;2023-11-19T05:45:58;0.50;;;0.50;;
20844;SDS011;10583;49.084;8.646;2023-11-19T05:48:26;0.50;;;0.50;;
20844;SDS011;10583;49.084;8.646;2023-11-19T05:50:54;0.40;;;0.40;;
20844;SDS011;10583;49.084;8.646;2023-11-19T05:53:21;0.30;;;0.30;;
20844;SDS011;10583;49.084;8.646;2023-11-19T05:55:49;0.50;;;0.50;;
20844;SDS011;10583;49.084;8.646;2023-11-19T05:58:21;0.50;;;0.50;;
20844;SDS011;10583;49.084;8.646;2023-11-19T06:00:50;0.57;;;0.57;;
20844;SDS011;10583;49.084;8.646;2023-11-19T06:03:17;0.33;;;0.33;;
20844;SDS011;10583;49.084;8.646;2023-11-19T06:05:44;0.40;;;0.40;;
20844;SDS011;10583;49.084;8.646;2023-11-19T06:08:11;0.37;;;0.37;;
20844;SDS011;10583;49.084;8.646;2023-11-19T06:10:39;0.40;;;0.40;;
20844;SDS011;10583;49.084;8.646;2023-11-19T06:13:08;0.30;;;0.30;;
20844;SDS011;10583;49.084;8.646;2023-11-19T06:15:36;0.30;;;0.30;;
20844;SDS011;10583;49.084;8.646;2023-11-19T06:18:03;0.30;;;0.30;;
20844;SDS011;10583;49.084;8.646;2023-11-19T06:20:30;0.30;;;0.30;;
20844;SDS011;10583;49.084;8.646;2023-11-19T06:22:59;0.47;;;0.47;;
20844;SDS011;10583;49.084;8.646;2023-11-19T06:25:26;0.30;;;0.30;;
20844;SDS011;10583;49.084;8.646;2023-11-19T06:27:53;0.20;;;0.20;;
20844;SDS011;10583;49.084;8.646;2023-11-19T06:30:23;0.20;;;0.20;;
20844;SDS011;10583;49.084;8.646;2023-11-19T06:32:50;0.30;;;0.30;;
20844;SDS011;10583;49.084;8.646;2023-11-19T06:35:17;0.17;;;0.17;;
20844;SDS011;10583;49.084;8.646;2023-11-19T06:37:44;0.20;;;0.20;;
20844;SDS011;10583;49.084;8.646;2023-11-19T06:40:11;0.30;;;0.30;;
20844;SDS011;10583;49.084;8.646;2023-11-19T06:42:40;0.10;;;0.10;;
20844;SDS011;10583;49.084;8.646;2023-11-19T06:45:07;0.20;;;0.20;;
20844;SDS011;10583;49.084;8.646;2023-11-19T06:47:36;0.20;;;0.20;;
20844;SDS011;10583;49.084;8.646;2023-11-19T06:50:04;0.20;;;0.20;;
20844;SDS011;10583;49.084;8.646;2023-11-19T06:52:32;0.20;;;0.20;;
20844;SDS011;10583;49.084;8.646;2023-11-19T06:54:59;0.20;;;0.20;;
20844;SDS011;10583;49.084;8.646;2023-11-19T06:57:26;0.20;;;0.20;;
20844;SDS011;10583;49.084;8.646;2023-11-19T06:59:54;0.30;;;0.30;;
20844;SDS011;10583;49.084;8.646;2023-11-19T07:02:21;0.30;;;0.30;;
20844;SDS011;10583;49.084;8.646;2023-11-19T07:04:49;0.17;;;0.17;;
20844;SDS011;10583;49.084;8.646;2023-11-19T07:07:17;0.17;;;0.17;;
20844;SDS011;10583;49.084;8.646;2023-11-19T07:09:45;0.33;;;0.33;;
20844;SDS011;10583;49.084;8.646;2023-11-19T07:12:13;0.30;;;0.30;;
20844;SDS011;10583;49.084;8.646;2023-11-19T07:14:40;0.20;;;0.20;;
20844;SDS011;10583;49.084;8.646;2023-11-19T07:17:07;0.20;;;0.20;;
20844;SDS011;10583;49.084;8.646;2023-11-19T07:19:35;0.20;;;0.20;;
20844;SDS011;10583;49.084;8.646;2023-11-19T07:22:04;0.23;;;0.23;;
20844;SDS011;10583;49.084;8.646;2023-11-19T07:24:32;0.30;;;0.30;;
20844;SDS011;10583;49.084;8.646;2023-11-19T07:26:59;0.40;;;0.40;;
20844;SDS011;10583;49.084;8.646;2023-11-19T07:29:28;0.30;;;0.30;;
20844;SDS011;10583;49.084;8.646;2023-11-19T07:31:55;0.27;;;0.27;;
20844;SDS011;10583;49.084;8.646;2023-11-19T07:34:22;0.30;;;0.30;;
20844;SDS011;10583;49.084;8.646;2023-11-19T07:36:49;0.30;;;0.30;;
20844;SDS011;10583;49.084;8.646;2023-11-19T07:39:17;0.40;;;0.40;;
20844;SDS011;10583;49.084;8.646;2023-11-19T07:41:45;0.20;;;0.20;;
20844;SDS011;10583;49.084;8.646;2023-11-19T07:44:12;0.40;;;0.40;;
20844;SDS011;10583;49.084;8.646;2023-11-19T07:46:39;0.20;;;0.20;;
20844;SDS011;10583;49.084;8.646;2023-11-19T07:49:07;0.10;;;0.10;;
20844;SDS011;10583;49.084;8.646;2023-11-19T07:51:34;0.20;;;0.20;;
20844;SDS011;10583;49.084;8.646;2023-11-19T07:54:02;0.20;;;0.20;;
20844;SDS011;10583;49.084;8.646;2023-11-19T07:56:31;0.20;;;0.20;;
20844;SDS011;10583;49.084;8.646;2023-11-19T07:58:59;0.20;;;0.20;;
20844;SDS011;10583;49.084;8.646;2023-11-19T08:01:26;0.37;;;0.37;;
20844;SDS011;10583;49.084;8.646;2023-11-19T08:03:53;0.30;;;0.30;;
20844;SDS011;10583;49.084;8.646;2023-11-19T08:06:20;0.20;;;0.20;;
20844;SDS011;10583;49.084;8.646;2023-11-19T08:08:47;0.23;;;0.23;;
20844;SDS011;10583;49.084;8.646;2023-11-19T08:11:14;0.30;;;0.30;;
20844;SDS011;10583;49.084;8.646;2023-11-19T08:13:42;0.30;;;0.30;;
20844;SDS011;10583;49.084;8.646;2023-11-19T08:16:09;0.20;;;0.20;;
20844;SDS011;10583;49.084;8.646;2023-11-19T08:18:35;0.23;;;0.23;;
20844;SDS011;10583;49.084;8.646;2023-11-19T08:21:02;0.40;;;0.40;;
20844;SDS011;10583;49.084;8.646;2023-11-19T08:23:29;0.40;;;0.40;;
20844;SDS011;10583;49.084;8.646;2023-11-19T08:25:56;0.30;;;0.30;;
20844;SDS011;10583;49.084;8.646;2023-11-19T08:28:23;0.40;;;0.40;;
20844;SDS011;10583;49.084;8.646;2023-11-19T08:30:51;0.40;;;0.40;;
20844;SDS011;10583;49.084;8.646;2023-11-19T08:33:17;0.50;;;0.50;;
20844;SDS011;10583;49.084;8.646;2023-11-19T08:35:47;0.50;;;0.50;;
20844;SDS011;10583;49.084;8.646;2023-11-19T08:38:14;0.60;;;0.60;;
20844;SDS011;10583;49.084;8.646;2023-11-19T08:40:40;0.40;;;0.40;;
20844;SDS011;10583;49.084;8.646;2023-11-19T08:43:07;0.30;;;0.30;;
20844;SDS011;10583;49.084;8.646;2023-11-19T08:45:34;0.53;;;0.53;;
20844;SDS011;10583;49.084;8.646;2023-11-19T08:48:02;0.40;;;0.40;;
20844;SDS011;10583;49.084;8.646;2023-11-19T08:50:29;0.60;;;0.60;;
20844;SDS011;10583;49.084;8.646;2023-11-19T08:52:56;0.40;;;0.40;;
20844;SDS011;10583;49.084;8.646;2023-11-19T08:55:22;0.50;;;0.50;;
20844;SDS011;10583;49.084;8.646;2023-11-19T08:57:51;0.33;;;0.33;;
20844;SDS011;10583;49.084;8.646;2023-11-19T09:00:18;0.40;;;0.40;;
20844;SDS011;10583;49.084;8.646;2023-11-19T09:02:46;0.60;;;0.60;;
20844;SDS011;10583;49.084;8.646;2023-11-19T09:05:14;0.43;;;0.43;;
20844;SDS011;10583;49.084;8.646;2023-11-19T09:07:40;0.47;;;0.47;;
20844;SDS011;10583;49.084;8.646;2023-11-19T09:10:07;0.50;;;0.50;;
20844;SDS011;10583;49.084;8.646;2023-11-19T09:12:36;0.40;;;0.40;;
20844;SDS011;10583;49.084;8.646;2023-11-19T09:15:03;0.60;;;0.60;;
20844;SDS011;10583;49.084;8.646;2023-11-19T09:17:31;0.37;;;0.37;;
20844;SDS011;10583;49.084;8.646;2023-11-19T09:19:57;0.47;;;0.47;;
20844;SDS011;10583;49.084;8.646;2023-11-19T09:22:25;0.60;;;0.60;;
20844;SDS011;10583;49.084;8.646;2023-11-19T09:24:52;0.50;;;0.50;;
20844;SDS011;10583;49.084;8.646;2023-11-19T09:27:19;0.67;;;0.67;;
20844;SDS011;10583;49.084;8.646;2023-11-19T09:29:46;0.40;;;0.40;;
20844;SDS011;10583;49.084;8.646;2023-11-19T09:32:14;0.40;;;0.40;;
20844;SDS011;10583;49.084;8.646;2023-11-19T09:34:41;0.30;;;0.30;;
20844;SDS011;10583;49.084;8.646;2023-11-19T09:37:08;0.40;;;0.40;;
20844;SDS011;10583;49.084;8.646;2023-11-19T09:39:36;0.27;;;0.27;;
20844;SDS011;10583;49.084;8.646;2023-11-19T09:42:03;0.30;;;0.30;;
20844;SDS011;10583;49.084;8.646;2023-11-19T09:44:30;0.40;;;0.40;;
20844;SDS011;10583;49.084;8.646;2023-11-19T09:46:56;0.30;;;0.30;;
20844;SDS011;10583;49.084;8.646;2023-11-19T09:49:25;0.70;;;0.70;;
20844;SDS011;10583;49.084;8.646;2023-11-19T09:51:53;0.57;;;0.57;;
20844;SDS011;10583;49.084;8.646;2023-11-19T09:54:20;0.50;;;0.50;;
20844;SDS011;10583;49.084;8.646;2023-11-19T09:56:48;0.47;;;0.47;;
20844;SDS011;10583;49.084;8.646;2023-11-19T09:59:15;0.40;;;0.40;;
20844;SDS011;10583;49.084;8.646;2023-11-19T10:01:42;0.40;;;0.40;;
20844;SDS011;10583;49.084;8.646;2023-11-19T10:04:12;0.60;;;0.60;;
20844;SDS011;10583;49.084;8.646;2023-11-19T10:06:41;0.50;;;0.50;;
20844;SDS011;10583;49.084;8.646;2023-11-19T10:09:09;0.60;;;0.60;;
20844;SDS011;10583;49.084;8.646;2023-11-19T10:11:35;0.57;;;0.57;;
20844;SDS011;10583;49.084;8.646;2023-11-19T10:14:03;0.50;;;0.50;;
20844;SDS011;10583;49.084;8.646;2023-11-19T10:16:30;0.43;;;0.43;;
20844;SDS011;10583;49.084;8.646;2023-11-19T10:18:57;0.40;;;0.40;;
20844;SDS011;10583;49.084;8.646;2023-11-19T10:21:24;0.30;;;0.30;;
20844;SDS011;10583;49.084;8.646;2023-11-19T10:23:53;0.30;;;0.30;;
20844;SDS011;10583;49.084;8.646;2023-11-19T10:26:22;0.50;;;0.50;;
20844;SDS011;10583;49.084;8.646;2023-11-19T10:28:49;0.40;;;0.40;;
20844;SDS011;10583;49.084;8.646;2023-11-19T10:31:18;0.43;;;0.43;;
20844;SDS011;10583;49.084;8.646;2023-11-19T10:33:49;0.40;;;0.40;;
20844;SDS011;10583;49.084;8.646;2023-11-19T10:36:16;0.40;;;0.40;;
20844;SDS011;10583;49.084;8.646;2023-11-19T10:38:51;0.50;;;0.50;;
20844;SDS011;10583;49.084;8.646;2023-11-19T10:41:26;0.40;;;0.40;;
20844;SDS011;10583;49.084;8.646;2023-11-19T10:43:53;0.40;;;0.40;;
20844;SDS011;10583;49.084;8.646;2023-11-19T10:46:21;0.50;;;0.50;;
20844;SDS011;10583;49.084;8.646;2023-11-19T10:48:48;0.50;;;0.50;;
20844;SDS011;10583;49.084;8.646;2023-11-19T10:51:17;0.50;;;0.50;;
20844;SDS011;10583;49.084;8.646;2023-11-19T10:53:48;0.60;;;0.60;;
20844;SDS011;10583;49.084;8.646;2023-11-19T10:56:16;0.40;;;0.40;;
20844;SDS011;10583;49.084;8.646;2023-11-19T10:58:46;0.50;;;0.50;;
20844;SDS011;10583;49.084;8.646;2023-11-19T11:01:16;0.50;;;0.50;;
20844;SDS011;10583;49.084;8.646;2023-11-19T11:03:47;0.50;;;0.50;;
20844;SDS011;10583;49.084;8.646;2023-11-19T11:06:18;0.57;;;0.57;;
20844;SDS011;10583;49.084;8.646;2023-11-19T11:08:45;0.50;;;0.50;;
20844;SDS011;10583;49.084;8.646;2023-11-19T11:11:13;0.77;;;0.77;;
20844;SDS011;10583;49.084;8.646;2023-11-19T11:13:42;0.67;;;0.67;;
20844;SDS011;10583;49.084;8.646;2023-11-19T11:16:10;0.70;;;0.70;;
20844;SDS011;10583;49.084;8.646;2023-11-19T11:18:37;0.60;;;0.60;;
20844;SDS011;10583;49.084;8.646;2023-11-19T11:21:07;0.43;;;0.43;;
20844;SDS011;10583;49.084;8.646;2023-11-19T11:23:46;0.53;;;0.53;;
20844;SDS011;10583;49.084;8.646;2023-11-19T11:26:28;0.73;;;0.73;;
20844;SDS011;10583;49.084;8.646;2023-11-19T11:29:14;0.60;;;0.60;;
20844;SDS011;10583;49.084;8.646;2023-11-19T11:31:48;2.13;;;2.13;;
20844;SDS011;10583;49.084;8.646;2023-11-19T11:34:38;4.90;;;4.90;;
20844;SDS011;10583;49.084;8.646;2023-11-19T11:37:19;1.30;;;1.30;;
20844;SDS011;10583;49.084;8.646;2023-11-19T11:39:51;0.90;;;0.90;;
20844;SDS011;10583;49.084;8.646;2023-11-19T11:45:04;1.00;;;1.00;;
20844;SDS011;10583;49.084;8.646;2023-11-19T11:50:52;1.40;;;1.40;;
20844;SDS011;10583;49.084;8.646;2023-11-19T11:53:22;1.47;;;1.47;;
20844;SDS011;10583;49.084;8.646;2023-11-19T11:55:57;0.90;;;0.90;;
20844;SDS011;10583;49.084;8.646;2023-11-19T11:58:34;1.23;;;1.23;;
20844;SDS011;10583;49.084;8.646;2023-11-19T12:01:04;1.00;;;1.00;;
20844;SDS011;10583;49.084;8.646;2023-11-19T12:03:34;0.80;;;0.80;;
20844;SDS011;10583;49.084;8.646;2023-11-19T12:06:04;1.30;;;1.30;;
20844;SDS011;10583;49.084;8.646;2023-11-19T12:08:33;1.17;;;1.17;;
20844;SDS011;10583;49.084;8.646;2023-11-19T12:11:01;1.10;;;1.10;;
20844;SDS011;10583;49.084;8.646;2023-11-19T12:13:47;1.00;;;1.00;;
20844;SDS011;10583;49.084;8.646;2023-11-19T12:16:20;1.13;;;1.13;;
20844;SDS011;10583;49.084;8.646;2023-11-19T12:18:47;1.00;;;1.00;;
20844;SDS011;10583;49.084;8.646;2023-11-19T12:21:27;0.70;;;0.70;;
20844;SDS011;10583;49.084;8.646;2023-11-19T12:23:56;0.70;;;0.70;;
20844;SDS011;10583;49.084;8.646;2023-11-19T12:26:35;0.70;;;0.70;;
20844;SDS011;10583;49.084;8.646;2023-11-19T12:29:03;0.90;;;0.90;;
20844;SDS011;10583;49.084;8.646;2023-11-19T12:31:31;0.60;;;0.60;;
20844;SDS011;10583;49.084;8.646;2023-11-19T12:34:00;0.60;;;0.60;;
20844;SDS011;10583;49.084;8.646;2023-11-19T12:36:31;0.63;;;0.63;;
20844;SDS011;10583;49.084;8.646;2023-11-19T12:38:59;0.70;;;0.70;;
20844;SDS011;10583;49.084;8.646;2023-11-19T12:41:26;1.00;;;1.00;;
20844;SDS011;10583;49.084;8.646;2023-11-19T12:43:53;0.83;;;0.83;;
20844;SDS011;10583;49.084;8.646;2023-11-19T12:46:20;0.70;;;0.70;;
20844;SDS011;10583;49.084;8.646;2023-11-19T12:48:47;0.60;;;0.60;;
20844;SDS011;10583;49.084;8.646;2023-11-19T12:51:15;0.90;;;0.90;;
20844;SDS011;10583;49.084;8.646;2023-11-19T12:53:48;0.70;;;0.70;;
20844;SDS011;10583;49.084;8.646;2023-11-19T12:56:17;0.60;;;0.60;;
20844;SDS011;10583;49.084;8.646;2023-11-19T12:58:43;0.70;;;0.70;;
20844;SDS011;10583;49.084;8.646;2023-11-19T13:01:10;0.80;;;0.80;;
20844;SDS011;10583;49.084;8.646;2023-11-19T13:03:42;0.90;;;0.90;;
20844;SDS011;10583;49.084;8.646;2023-11-19T13:06:09;1.10;;;1.10;;
20844;SDS011;10583;49.084;8.646;2023-11-19T13:08:37;0.90;;;0.90;;
20844;SDS011;10583;49.084;8.646;2023-11-19T13:11:04;1.60;;;1.60;;
20844;SDS011;10583;49.084;8.646;2023-11-19T13:13:33;1.30;;;1.30;;
20844;SDS011;10583;49.084;8.646;2023-11-19T13:16:20;0.83;;;0.83;;
20844;SDS011;10583;49.084;8.646;2023-11-19T13:18:47;0.80;;;0.80;;
20844;SDS011;10583;49.084;8.646;2023-11-19T13:21:13;0.93;;;0.93;;
20844;SDS011;10583;49.084;8.646;2023-11-19T13:23:40;0.83;;;0.83;;
20844;SDS011;10583;49.084;8.646;2023-11-19T13:26:07;1.10;;;1.10;;
20844;SDS011;10583;49.084;8.646;2023-11-19T13:28:35;0.60;;;0.60;;
20844;SDS011;10583;49.084;8.646;2023-11-19T13:31:02;0.83;;;0.83;;
20844;SDS011;10583;49.084;8.646;2023-11-19T13:33:29;0.80;;;0.80;;
20844;SDS011;10583;49.084;8.646;2023-11-19T13:35:56;0.80;;;0.80;;
20844;SDS011;10583;49.084;8.646;2023-11-19T13:38:23;0.80;;;0.80;;
20844;SDS011;10583;49.084;8.646;2023-11-19T13:40:50;1.53;;;1.53;;
20844;SDS011;10583;49.084;8.646;2023-11-19T13:43:17;1.20;;;1.20;;
20844;SDS011;10583;49.084;8.646;2023-11-19T13:45:45;0.87;;;0.87;;
20844;SDS011;10583;49.084;8.646;2023-11-19T13:48:12;0.90;;;0.90;;
20844;SDS011;10583;49.084;8.646;2023-11-19T13:50:38;0.90;;;0.90;;
20844;SDS011;10583;49.084;8.646;2023-11-19T13:53:05;0.63;;;0.63;;
20844;SDS011;10583;49.084;8.646;2023-11-19T13:55:32;0.70;;;0.70;;
20844;SDS011;10583;49.084;8.646;2023-11-19T13:57:58;0.80;;;0.80;;
20844;SDS011;10583;49.084;8.646;2023-11-19T14:00:25;0.90;;;0.90;;
20844;SDS011;10583;49.084;8.646;2023-11-19T14:02:53;0.63;;;0.63;;
20844;SDS011;10583;49.084;8.646;2023-11-19T14:05:20;0.63;;;0.63;;
20844;SDS011;10583;49.084;8.646;2023-11-19T14:07:48;0.63;;;0.63;;
20844;SDS011;10583;49.084;8.646;2023-11-19T14:10:16;0.70;;;0.70;;
20844;SDS011;10583;49.084;8.646;2023-11-19T14:12:43;0.77;;;0.77;;
20844;SDS011;10583;49.084;8.646;2023-11-19T14:15:10;0.80;;;0.80;;
20844;SDS011;10583;49.084;8.646;2023-11-19T14:17:38;0.60;;;0.60;;
20844;SDS011;10583;49.084;8.646;2023-11-19T14:20:06;0.83;;;0.83;;
20844;SDS011;10583;49.084;8.646;2023-11-19T14:22:37;0.90;;;0.90;;
20844;SDS011;10583;49.084;8.646;2023-11-19T14:25:04;0.83;;;0.83;;
20844;SDS011;10583;49.084;8.646;2023-11-19T14:27:35;0.80;;;0.80;;
20844;SDS011;10583;49.084;8.646;2023-11-19T14:30:02;0.70;;;0.70;;
20844;SDS011;10583;49.084;8.646;2023-11-19T14:32:30;0.63;;;0.63;;
20844;SDS011;10583;49.084;8.646;2023-11-19T14:34:57;0.93;;;0.93;;
20844;SDS011;10583;49.084;8.646;2023-11-19T14:37:25;0.70;;;0.70;;
20844;SDS011;10583;49.084;8.646;2023-11-19T14:39:51;0.93;;;0.93;;
20844;SDS011;10583;49.084;8.646;2023-11-19T14:42:18;1.20;;;1.20;;
20844;SDS011;10583;49.084;8.646;2023-11-19T14:44:45;1.03;;;1.03;;
20844;SDS011;10583;49.084;8.646;2023-11-19T14:47:11;0.83;;;0.83;;
20844;SDS011;10583;49.084;8.646;2023-11-19T14:49:38;1.10;;;1.10;;
20844;SDS011;10583;49.084;8.646;2023-11-19T14:52:05;1.07;;;1.07;;
20844;SDS011;10583;49.084;8.646;2023-11-19T14:54:33;1.00;;;1.00;;
20844;SDS011;10583;49.084;8.646;2023-11-19T14:56:59;0.90;;;0.90;;
20844;SDS011;10583;49.084;8.646;2023-11-19T14:59:26;1.40;;;1.40;;
20844;SDS011;10583;49.084;8.646;2023-11-19T15:01:53;0.90;;;0.90;;